Aktualne dane pomiarowe

Uwaga, wersja testowa! Automatyczne pobieranie danych za pomocą narzędzi lub skryptów to umożliwiających jest zabronione.

Dane meteo z obszaru Polski uzyskane na podstawie depesz SYNOP pobieranych co godzinę z NWS. Najedź myszką na symbol przedstawiony w tabeli, aby uzyskać informacje co do jego znaczenia. Prosimy pamiętać, że to testowa wersja strony, która jeszcze nie jest ukończona. Stworzono również jest krótki FAQ dotyczący korzystania z tej podstrony Anomalie temperatury w chwili obecnej odniesione są do okresu referencyjnego 1951-2016. Okres ten będzie później zmieniony na 1981-2010. Kliknij ikonę aby pobrać plik CSV. Kliknij ikonę aby wygenerować mapę synoptyczną dla danego terminu.

Wybierz Datę:    

        

Racibórz (12540)

Dane terminowe dla wybranej stacji. Kliknij datę, aby otrzymać dane z tego terminu dla wszystkich stacji.

TemperaturaZachmurzenieWiatrCiśnienieOpadyPogoda
 Data t td wb tx tn tg rh  Nt Nl Cl Cm Ch ws wd g1 g2 wx mslp ppp ch 24h 12h t ww ww w1 w2  
2019-06-19 23:00:00 20.5 16.5 17.7--- 7825.0wx-wxwx3wx---1011.1 987.1 -0.2---------
2019-06-19 22:00:00 20.5 16.7 17.9--- 7923.0wx-wx1wx---1011.1 987.1 0.2---------
2019-06-19 21:00:00 20.7 16.3 17.7--- 7624.0wx-wx1wx--11011.3 987.3 0.6---------
2019-06-19 20:00:00 21.6 18.0 19.1--- 8019.0wx-wx3wx--31011.2 987.3 0.5---------
2019-06-19 19:00:00 22.6 18.4 19.7--- 7720.0wx-wxwx2wx--21010.7 986.9 0.4---------
2019-06-19 18:00:00 24.9 18.8 20.7 27.8 20.6- 6923.0wx-wxwx2wx--21010.3 986.7 -0.4- 0.412------
2019-06-19 17:00:00 25.2 17.7 20.2--- 6328.0wxwxwxwxwx2wx--21010.4 986.8 -0.7---------
2019-06-19 16:00:00 26.3 16.8 20.1--- 5628.0wxwxwxwxwx3wx--31010.0 986.5 -1.5---------
2019-06-19 15:00:00 26.9 17.7 20.8--- 5730.0wxwxwxwxwx4wx---1010.6 987.1 -1.2---------
2019-06-19 14:00:00 26.6 17.1 20.3--- 5630.0wxwxwxwx4wx--41011.0 987.5 -1.1---------
2019-06-19 13:00:00 26.2 17.0 20.1--- 5728.0wxwxwxwx4wx--41011.5 988.0 -1.0---------
2019-06-19 12:00:00 27.0 16.6 20.2--- 5325.0wxwxwxwx3wx--31011.8 988.3 -1.0- 0.46wx-w1--
2019-06-19 11:00:00 23.2 15.3 18.1--- 6125.0wxwxwx4wx--41012.4 988.6 -1.2---wx---
2019-06-19 10:00:00 27.4 17.0 20.6--- 5330.0wxwxwxwx2wx--21012.5 989.0 -1.1---------
2019-06-19 09:00:00 26.8 16.7 20.2--- 5425.0wxwxwxwx2wx--21012.8 989.3 -1.1---------
2019-06-19 08:00:00 25.1 19.0 20.9--- 6915.0wxwxwxwx1wx---1013.5 989.8 -0.6---------
2019-06-19 07:00:00 22.4 17.5 19.0--- 7411.0wxwxwxwx1wx--11014.0 990.1 -0.3---------
2019-06-19 06:00:00 20.6 16.8 18.0 24.4 13.8 13 7910.0wxwxwxwxwx1wx--11014.4 990.4 0.1- 0.012----- 14.3
2019-06-19 05:00:00 17.9 16.1 16.6--- 897.0wxwxwxwx1wx--11014.7 990.4 -0.1---wx---
2019-06-19 04:00:00 15.2 14.4 14.6--- 955.0wxwxwxwxwx1wx--11014.9 990.4 -0.4---wx---
2019-06-19 03:00:00 13.9 12.9 13.2--- 944.0wxwxwxwxwx1wx--11014.9 990.3 -0.7---wx---
2019-06-19 02:00:00 14.7 13.9 14.1--- 956.0wx-wx2wx--21015.0 990.5 -0.7---wx---
2019-06-19 01:00:00 14.7 13.4 13.8--- 926.0wx-wx1wx--11015.4 990.8 -0.7---wx---
2019-06-19 00:00:00 16.1 13.8 14.5--- 8612.0wx-1wx--11015.4 991.0 -1.0- 0.06------
2019-06-18 23:00:00 17.4 14.7 15.5--- 8415.0wx-2wx--21015.5 991.2 -1.0---------
2019-06-18 22:00:00 18.4 14.7 15.9--- 7918.0wx-wx2wx---1015.8 991.5 -0.4---------
2019-06-18 21:00:00 21.2 15.1 17.2--- 6825.0wx-wx2wx--21016.0 992.0 0.4---------
2019-06-18 20:00:00 21.6 14.7 17.1--- 6530.0wx-wx1wx--11016.2 992.2 0.5---------
2019-06-18 19:00:00 22.6 14.9 17.6--- 6230.0wxwxwxwx3wx--31015.8 991.9 0.1---------
2019-06-18 18:00:00 24.4 14.8 18.3 26.5 19.3- 5526.0wxwxwxwxwx2wx--21015.4 991.6 -0.6- 0.012------
2019-06-18 17:00:00 24.6 14.1 18.0--- 5227.0wxwxwxwx2wx---1015.4 991.7 -0.9---------
2019-06-18 16:00:00 25.4 13.9 18.2--- 4929.0wxwxwxwx3wx--31015.5 991.8 -1.4---------
2019-06-18 15:00:00 25.6 13.4 18.0--- 4735.0wxwxwxwx3wx---1015.9 992.2 -1.5---------
2019-06-18 14:00:00 26.1 13.6 18.3--- 4629.0wxwxwxwx3wx--31016.3 992.6 -1.6---------
2019-06-18 13:00:00 26.1 14.2 18.6--- 4828.0wxwxwxwx3wx--31016.9 993.2 -1.3---------
2019-06-18 12:00:00 25.4 13.3 17.9--- 4730.0wxwxwxwx3wx--31017.4 993.7 -1.1- 0.06------
2019-06-18 11:00:00 25.1 13.6 17.9--- 4930.0wxwxwxwx4wx--41018.0 994.2 -1.2---------
2019-06-18 10:00:00 24.2 13.1 17.3--- 5030.0wxwxwxwx4wx--41018.3 994.5 -1.1---------
2019-06-18 09:00:00 23.7 13.6 17.4--- 5330.0wxwxwxwx3wx--31018.7 994.8 -1.0---------
2019-06-18 08:00:00 22.1 14.2 17.0--- 6125.0wxwxwxwx2wx--21019.4 995.4 -0.2---------
2019-06-18 07:00:00 21.4 14.1 16.7--- 6327.0wx-wx3wx---1019.7 995.6 0.1---------
2019-06-18 06:00:00 19.3 13.7 15.6 22.0 13.6 12 7023.0wx-wx1wx--11020.1 995.8 0.3- 0.012----- 11.6
2019-06-18 05:00:00 16.8 13.5 14.6--- 8121.0wx-wx1wx--11020.1 995.6 0.1---------
2019-06-18 04:00:00 14.8 12.7 13.3--- 8720.0wx-wx1wx--11020.2 995.5 -0.1---------
2019-06-18 03:00:00 13.7 11.6 12.3--- 8722.0wx-wx2wx--21020.3 995.5 -0.3---------
2019-06-18 02:00:00 14.2 11.5 12.4--- 8426.0wx-wx2wx---1020.2 995.5 -0.5---------
2019-06-18 01:00:00 15.0 11.4 12.6--- 7930.0wx-wx1wx---1020.2 995.6 -0.5---------
2019-06-18 00:00:00 16.0 11.2 12.9--- 7340.0wx-wx2wx--21020.4 995.8 -0.2- 0.06------
2.8 ms

 

Print Friendly, PDF & Email